• Join FlightAware (Why Join?)
  • Login
  • US Flag 
08:52AM EST


 

Airport Tracker/Info


-or-


 

Live Flight TrackerFlight Track Log ✈ JZA8293 ✈ 30-Apr-2013 ✈ CYWG - CYXE

Flight Track Log - Related Links

Times and Time Zones

All times are in EDT time to prevent confusion due to time zone crossing. See the JZA8293 flight status page for this flight to view local times or setup timezone preferences in your user account.

Time Position Orientation Groundspeed Altitude Reporting Facility
EDT Latitude Longitude Course Direction KTS MPH feet Rate Location/Type
01:28PM 49.8833 -97.2333 285° West 10 12 800  Level Winnipeg Center
01:29PM 49.9333 -97.2333 360° North 180 207 2,500 1,920 Climbing Winnipeg Center
01:30PM 49.9833 -97.2000 23° Northeast 210 242 4,700 2,040 Climbing Winnipeg Center
01:31PM 50.0333 -97.2500 327° Northwest 260 299 6,600 2,520 Climbing Winnipeg Center
01:32PM 50.0549 -97.9241 287° West  Level FlightAware Approximate
01:32PM 50.0333 -97.3500 270° West 250 288 9,800  Level Winnipeg Center
01:33PM 50.0970 -98.0939 308° West  Level FlightAware Approximate
01:33PM 50.0167 -97.4833 259° West 270 311 12,200  Level Winnipeg Center
01:34PM 50.1344 -98.2677 285° West  Level FlightAware Approximate
01:34PM 50.0167 -97.5833 270° West 300 345 14,100  Level Winnipeg Center
01:35PM 50.0167 -97.7500 270° West 310 357 16,300 2,220 Climbing Winnipeg Center
01:36PM 50.0500 -97.8833 291° West 330 380 18,600 1,980 Climbing Winnipeg Center
01:37PM 50.0833 -98.0167 291° West 350 403 20,300 1,560 Climbing Winnipeg Center
01:38PM 50.1000 -98.1667 280° West 350 403 21,800 1,500 Climbing Winnipeg Center
01:39PM 50.1333 -98.3167 289° West 360 414 23,300 1,500 Climbing Winnipeg Center
01:40PM 50.1667 -98.4833 287° West 370 426 24,800 1,260 Climbing Winnipeg Center
01:41PM 50.2000 -98.6333 289° West 380 437 25,900 1,080 Climbing Winnipeg Center
01:42PM 50.2333 -98.8000 287° West 390 449 27,000 1,020 Climbing Winnipeg Center
01:43PM 50.2667 -98.9500 289° West 400 460 28,000 900 Climbing Winnipeg Center
01:44PM 50.3000 -99.1167 287° West 400 460 28,800 1,020 Climbing Winnipeg Center
01:45PM 50.3167 -99.3000 278° West 400 460 30,100 1,020 Climbing Winnipeg Center
01:46PM 50.3500 -99.4500 289° West 400 460 30,900 840 Climbing Winnipeg Center
01:47PM 50.3833 -99.6500 285° West 400 460 31,800 720 Climbing Winnipeg Center
01:48PM 50.4167 -99.8000 289° West 400 460 32,400 600 Climbing Winnipeg Center
01:49PM 50.4667 -99.9667 295° West 400 460 33,100 540 Climbing Winnipeg Center
01:50PM 50.5000 -100.1167 289° West 400 460 33,500 360 Climbing Winnipeg Center
01:51PM 50.5500 -100.2667 298° West 400 460 33,900 240 Climbing Winnipeg Center
01:52PM 50.6000 -100.4500 293° West 400 460 34,000  Climbing Winnipeg Center
01:53PM 50.6500 -100.6000 298° West 410 472 34,000  Level Winnipeg Center
01:54PM 50.6833 -100.7667 288° West 420 483 34,000  Level Winnipeg Center
01:55PM 50.7500 -100.9333 302° West 410 472 34,000  Level Winnipeg Center
01:56PM 50.8000 -101.1000 295° West 410 472 34,000  Level Winnipeg Center
01:57PM 50.8333 -101.2667 288° West 410 472 34,000  Level Winnipeg Center
01:58PM 50.8833 -101.4167 298° West 410 472 34,000  Level Winnipeg Center
01:59PM 50.9333 -101.5833 296° West 410 472 34,000  Level Winnipeg Center
02:00PM 50.9667 -101.7500 288° West 410 472 34,000  Level Winnipeg Center
02:01PM 51.0167 -101.9167 296° West 400 460 34,000  Level Winnipeg Center
02:02PM 51.0500 -102.0833 288° West 410 472 34,000  Level Winnipeg Center
02:03PM 51.1000 -102.2500 296° West 410 472 34,000  Level Winnipeg Center
02:04PM 51.1333 -102.4167 288° West 410 472 34,000  Level Winnipeg Center
02:05PM 51.2000 -102.6000 300° West 410 472 34,000  Level Winnipeg Center
02:06PM 51.2500 -102.7500 298° West 410 472 34,000  Level Winnipeg Center
02:07PM 51.2833 -102.9333 286° West 410 472 34,000  Level Winnipeg Center
02:08PM 51.3167 -103.1000 288° West 420 483 34,000  Level Winnipeg Center
02:09PM 51.3667 -103.2667 296° West 420 483 34,000  Level Winnipeg Center
02:10PM 51.4000 -103.4333 288° West 420 483 34,000  Level Winnipeg Center
02:11PM 51.4500 -103.6000 296° West 420 483 34,000  Level Winnipeg Center
02:12PM 51.5000 -103.8000 292° West 420 483 34,000  Level Winnipeg Center
02:13PM 51.5500 -103.9667 296° West 420 483 34,000  Level Winnipeg Center
02:14PM 51.5833 -104.1333 288° West 420 483 34,000  Level Winnipeg Center
02:15PM 51.6167 -104.3000 288° West 420 483 34,000  Level Winnipeg Center
02:16PM 51.6667 -104.4833 294° West 430 495 34,000 -1,080 Level Winnipeg Center
02:17PM 51.7167 -104.6833 292° West 430 495 31,900 -2,520 Descending Winnipeg Center
02:18PM 51.7500 -104.8667 286° West 450 518 29,000 -3,060 Descending Winnipeg Center
02:19PM 51.8167 -105.0500 301° West 440 506 25,800 -3,060 Descending Winnipeg Center
02:20PM 51.8500 -105.2500 285° West 420 483 22,900 -3,000 Descending Winnipeg Center
02:21PM 51.8833 -105.4167 288° West 400 460 19,800 -3,000 Descending Winnipeg Center
02:22PM 51.9333 -105.5500 301° West 390 449 17,000 -2,880 Descending Winnipeg Center
02:23PM 51.9667 -105.7000 290° West 370 426 14,100 -2,580 Descending Winnipeg Center
02:24PM 51.9833 -105.8667 279° West 350 403 11,900 -1,800 Descending Winnipeg Center
02:25PM 52.0333 -105.9833 305° West 310 357 10,600 -1,620 Descending Winnipeg Center
02:26PM 52.0500 -106.1000 283° West 280 322 8,700 -1,860 Descending Winnipeg Center
02:27PM 52.0833 -106.2167 295° West 260 299 6,900 -1,860 Descending Winnipeg Center
02:28PM 52.1000 -106.3333 283° West 260 299 5,000 -1,500 Descending Winnipeg Center
02:29PM 52.1167 -106.4500 283° West 240 276 4,000 -780 Descending Winnipeg Center
02:30PM 52.1333 -106.5000 299° West 200 230 3,500 -540 Descending Winnipeg Center